sensor_id;sensor_type;location;lat;lon;timestamp;P1;durP1;ratioP1;P2;durP2;ratioP2
20986;SDS011;10652;50.306;8.570;2023-09-08T00:02:24;5.07;;;4.22;;
20986;SDS011;10652;50.306;8.570;2023-09-08T00:06:27;4.82;;;3.70;;
20986;SDS011;10652;50.306;8.570;2023-09-08T00:10:29;4.75;;;3.90;;
20986;SDS011;10652;50.306;8.570;2023-09-08T00:14:31;5.45;;;3.95;;
20986;SDS011;10652;50.306;8.570;2023-09-08T00:18:33;4.22;;;3.80;;
20986;SDS011;10652;50.306;8.570;2023-09-08T00:22:37;5.15;;;3.80;;
20986;SDS011;10652;50.306;8.570;2023-09-08T00:26:39;5.40;;;4.32;;
20986;SDS011;10652;50.306;8.570;2023-09-08T00:30:41;5.68;;;4.18;;
20986;SDS011;10652;50.306;8.570;2023-09-08T00:34:44;4.85;;;3.90;;
20986;SDS011;10652;50.306;8.570;2023-09-08T00:38:46;5.50;;;4.00;;
20986;SDS011;10652;50.306;8.570;2023-09-08T00:42:48;4.35;;;3.70;;
20986;SDS011;10652;50.306;8.570;2023-09-08T00:46:50;4.30;;;3.85;;
20986;SDS011;10652;50.306;8.570;2023-09-08T00:50:53;4.45;;;3.65;;
20986;SDS011;10652;50.306;8.570;2023-09-08T00:54:55;4.30;;;3.88;;
20986;SDS011;10652;50.306;8.570;2023-09-08T00:58:57;4.90;;;3.90;;
20986;SDS011;10652;50.306;8.570;2023-09-08T01:02:59;4.50;;;3.58;;
20986;SDS011;10652;50.306;8.570;2023-09-08T01:07:02;4.97;;;3.75;;
20986;SDS011;10652;50.306;8.570;2023-09-08T01:11:05;6.07;;;3.90;;
20986;SDS011;10652;50.306;8.570;2023-09-08T01:15:08;6.15;;;3.92;;
20986;SDS011;10652;50.306;8.570;2023-09-08T01:19:11;4.00;;;3.60;;
20986;SDS011;10652;50.306;8.570;2023-09-08T01:23:21;4.85;;;3.67;;
20986;SDS011;10652;50.306;8.570;2023-09-08T01:27:26;4.28;;;3.88;;
20986;SDS011;10652;50.306;8.570;2023-09-08T01:31:31;5.65;;;3.78;;
20986;SDS011;10652;50.306;8.570;2023-09-08T01:35:35;6.45;;;4.20;;
20986;SDS011;10652;50.306;8.570;2023-09-08T01:39:37;4.60;;;3.40;;
20986;SDS011;10652;50.306;8.570;2023-09-08T01:43:39;5.63;;;4.35;;
20986;SDS011;10652;50.306;8.570;2023-09-08T01:47:41;6.13;;;4.05;;
20986;SDS011;10652;50.306;8.570;2023-09-08T01:51:44;7.47;;;4.50;;
20986;SDS011;10652;50.306;8.570;2023-09-08T01:55:46;7.10;;;4.30;;
20986;SDS011;10652;50.306;8.570;2023-09-08T01:59:48;4.70;;;4.10;;
20986;SDS011;10652;50.306;8.570;2023-09-08T02:03:50;4.20;;;3.80;;
20986;SDS011;10652;50.306;8.570;2023-09-08T02:07:52;5.85;;;4.32;;
20986;SDS011;10652;50.306;8.570;2023-09-08T02:11:54;5.07;;;3.88;;
20986;SDS011;10652;50.306;8.570;2023-09-08T02:15:57;7.93;;;4.05;;
20986;SDS011;10652;50.306;8.570;2023-09-08T02:19:59;4.78;;;3.45;;
20986;SDS011;10652;50.306;8.570;2023-09-08T02:24:01;8.02;;;3.95;;
20986;SDS011;10652;50.306;8.570;2023-09-08T02:28:03;4.40;;;3.83;;
20986;SDS011;10652;50.306;8.570;2023-09-08T02:32:06;9.07;;;3.88;;
20986;SDS011;10652;50.306;8.570;2023-09-08T02:36:09;4.97;;;3.85;;
20986;SDS011;10652;50.306;8.570;2023-09-08T02:40:13;4.65;;;3.90;;
20986;SDS011;10652;50.306;8.570;2023-09-08T02:44:15;7.03;;;3.80;;
20986;SDS011;10652;50.306;8.570;2023-09-08T02:48:18;5.20;;;3.58;;
20986;SDS011;10652;50.306;8.570;2023-09-08T02:52:20;4.82;;;3.90;;
20986;SDS011;10652;50.306;8.570;2023-09-08T02:56:23;5.88;;;4.07;;
20986;SDS011;10652;50.306;8.570;2023-09-08T03:00:26;4.88;;;4.25;;
20986;SDS011;10652;50.306;8.570;2023-09-08T03:04:29;4.78;;;4.05;;
20986;SDS011;10652;50.306;8.570;2023-09-08T03:08:32;5.85;;;3.88;;
20986;SDS011;10652;50.306;8.570;2023-09-08T03:12:34;4.57;;;4.18;;
20986;SDS011;10652;50.306;8.570;2023-09-08T03:16:36;4.22;;;3.83;;
20986;SDS011;10652;50.306;8.570;2023-09-08T03:20:39;4.40;;;3.90;;
20986;SDS011;10652;50.306;8.570;2023-09-08T03:24:42;6.15;;;4.13;;
20986;SDS011;10652;50.306;8.570;2023-09-08T03:28:44;6.43;;;4.30;;
20986;SDS011;10652;50.306;8.570;2023-09-08T03:32:46;4.30;;;3.90;;
20986;SDS011;10652;50.306;8.570;2023-09-08T03:36:49;4.13;;;3.72;;
20986;SDS011;10652;50.306;8.570;2023-09-08T03:40:51;5.68;;;3.80;;
20986;SDS011;10652;50.306;8.570;2023-09-08T03:44:53;4.57;;;3.50;;
20986;SDS011;10652;50.306;8.570;2023-09-08T03:48:55;5.45;;;3.83;;
20986;SDS011;10652;50.306;8.570;2023-09-08T03:53:02;6.03;;;3.70;;
20986;SDS011;10652;50.306;8.570;2023-09-08T03:57:05;5.20;;;4.60;;
20986;SDS011;10652;50.306;8.570;2023-09-08T04:01:07;10.40;;;4.22;;
20986;SDS011;10652;50.306;8.570;2023-09-08T04:05:09;4.60;;;4.10;;
20986;SDS011;10652;50.306;8.570;2023-09-08T04:09:12;5.95;;;3.75;;
20986;SDS011;10652;50.306;8.570;2023-09-08T04:13:15;5.32;;;4.22;;
20986;SDS011;10652;50.306;8.570;2023-09-08T04:17:17;4.65;;;4.00;;
20986;SDS011;10652;50.306;8.570;2023-09-08T04:21:20;5.45;;;4.10;;
20986;SDS011;10652;50.306;8.570;2023-09-08T04:25:22;5.35;;;4.57;;
20986;SDS011;10652;50.306;8.570;2023-09-08T04:29:24;4.68;;;3.88;;
20986;SDS011;10652;50.306;8.570;2023-09-08T04:33:26;8.25;;;4.28;;
20986;SDS011;10652;50.306;8.570;2023-09-08T04:37:30;5.00;;;3.97;;
20986;SDS011;10652;50.306;8.570;2023-09-08T04:41:32;6.88;;;4.00;;
20986;SDS011;10652;50.306;8.570;2023-09-08T04:45:35;5.05;;;3.97;;
20986;SDS011;10652;50.306;8.570;2023-09-08T04:49:37;5.78;;;4.18;;
20986;SDS011;10652;50.306;8.570;2023-09-08T04:53:39;10.20;;;5.80;;
20986;SDS011;10652;50.306;8.570;2023-09-08T04:57:42;7.55;;;4.97;;
20986;SDS011;10652;50.306;8.570;2023-09-08T05:01:44;5.85;;;4.40;;
20986;SDS011;10652;50.306;8.570;2023-09-08T05:05:46;5.50;;;4.47;;
20986;SDS011;10652;50.306;8.570;2023-09-08T05:09:49;6.00;;;4.75;;
20986;SDS011;10652;50.306;8.570;2023-09-08T05:13:51;6.40;;;4.50;;
20986;SDS011;10652;50.306;8.570;2023-09-08T05:17:53;8.93;;;4.93;;
20986;SDS011;10652;50.306;8.570;2023-09-08T05:21:57;6.47;;;4.47;;
20986;SDS011;10652;50.306;8.570;2023-09-08T05:25:59;5.80;;;4.60;;
20986;SDS011;10652;50.306;8.570;2023-09-08T05:30:03;6.85;;;5.15;;
20986;SDS011;10652;50.306;8.570;2023-09-08T05:34:08;5.43;;;4.55;;
20986;SDS011;10652;50.306;8.570;2023-09-08T05:38:10;4.78;;;4.07;;
20986;SDS011;10652;50.306;8.570;2023-09-08T05:42:12;6.95;;;3.97;;
20986;SDS011;10652;50.306;8.570;2023-09-08T05:46:14;6.25;;;4.20;;
20986;SDS011;10652;50.306;8.570;2023-09-08T05:50:16;8.40;;;4.60;;
20986;SDS011;10652;50.306;8.570;2023-09-08T05:54:19;8.25;;;4.40;;
20986;SDS011;10652;50.306;8.570;2023-09-08T05:58:22;5.97;;;4.50;;
20986;SDS011;10652;50.306;8.570;2023-09-08T06:02:26;6.28;;;4.10;;
20986;SDS011;10652;50.306;8.570;2023-09-08T06:06:28;7.10;;;5.05;;
20986;SDS011;10652;50.306;8.570;2023-09-08T06:10:32;5.40;;;4.80;;
20986;SDS011;10652;50.306;8.570;2023-09-08T06:14:34;9.38;;;5.10;;
20986;SDS011;10652;50.306;8.570;2023-09-08T06:18:37;8.40;;;4.70;;
20986;SDS011;10652;50.306;8.570;2023-09-08T06:22:45;5.18;;;4.10;;
20986;SDS011;10652;50.306;8.570;2023-09-08T06:26:47;6.97;;;3.78;;
20986;SDS011;10652;50.306;8.570;2023-09-08T06:30:49;7.90;;;3.83;;
20986;SDS011;10652;50.306;8.570;2023-09-08T06:34:51;6.80;;;4.20;;
20986;SDS011;10652;50.306;8.570;2023-09-08T06:38:53;5.25;;;4.32;;
20986;SDS011;10652;50.306;8.570;2023-09-08T06:42:56;4.63;;;3.70;;
20986;SDS011;10652;50.306;8.570;2023-09-08T06:47:12;5.65;;;4.10;;
20986;SDS011;10652;50.306;8.570;2023-09-08T06:51:14;6.22;;;4.07;;
20986;SDS011;10652;50.306;8.570;2023-09-08T06:55:17;6.75;;;3.97;;
20986;SDS011;10652;50.306;8.570;2023-09-08T06:59:22;5.63;;;3.60;;
20986;SDS011;10652;50.306;8.570;2023-09-08T07:03:24;6.25;;;4.60;;
20986;SDS011;10652;50.306;8.570;2023-09-08T07:07:30;4.82;;;3.63;;
20986;SDS011;10652;50.306;8.570;2023-09-08T07:11:33;7.30;;;3.97;;
20986;SDS011;10652;50.306;8.570;2023-09-08T07:15:35;5.28;;;3.65;;
20986;SDS011;10652;50.306;8.570;2023-09-08T07:19:37;4.38;;;3.50;;
20986;SDS011;10652;50.306;8.570;2023-09-08T07:23:40;4.57;;;3.38;;
20986;SDS011;10652;50.306;8.570;2023-09-08T07:27:44;4.45;;;3.30;;
20986;SDS011;10652;50.306;8.570;2023-09-08T07:31:47;4.10;;;3.35;;
20986;SDS011;10652;50.306;8.570;2023-09-08T07:35:49;5.32;;;3.47;;
20986;SDS011;10652;50.306;8.570;2023-09-08T07:39:51;6.18;;;3.50;;
20986;SDS011;10652;50.306;8.570;2023-09-08T07:43:54;3.55;;;3.25;;
20986;SDS011;10652;50.306;8.570;2023-09-08T07:47:59;5.63;;;3.53;;
20986;SDS011;10652;50.306;8.570;2023-09-08T07:52:01;7.18;;;3.85;;
20986;SDS011;10652;50.306;8.570;2023-09-08T07:56:05;5.00;;;3.05;;
20986;SDS011;10652;50.306;8.570;2023-09-08T08:00:08;3.67;;;3.13;;
20986;SDS011;10652;50.306;8.570;2023-09-08T08:04:13;4.75;;;3.22;;
20986;SDS011;10652;50.306;8.570;2023-09-08T08:08:16;5.43;;;3.08;;
20986;SDS011;10652;50.306;8.570;2023-09-08T08:12:18;4.22;;;3.53;;
20986;SDS011;10652;50.306;8.570;2023-09-08T08:16:20;5.15;;;3.38;;
20986;SDS011;10652;50.306;8.570;2023-09-08T08:20:23;3.75;;;3.30;;
20986;SDS011;10652;50.306;8.570;2023-09-08T08:24:26;5.38;;;2.92;;
20986;SDS011;10652;50.306;8.570;2023-09-08T08:28:28;3.40;;;3.10;;
20986;SDS011;10652;50.306;8.570;2023-09-08T08:32:31;4.10;;;3.70;;
20986;SDS011;10652;50.306;8.570;2023-09-08T08:36:33;3.33;;;3.03;;
20986;SDS011;10652;50.306;8.570;2023-09-08T08:40:37;4.72;;;2.90;;
20986;SDS011;10652;50.306;8.570;2023-09-08T08:44:40;3.63;;;3.28;;
20986;SDS011;10652;50.306;8.570;2023-09-08T08:48:43;4.70;;;2.75;;
20986;SDS011;10652;50.306;8.570;2023-09-08T08:52:47;4.68;;;2.95;;
20986;SDS011;10652;50.306;8.570;2023-09-08T08:56:49;7.68;;;3.03;;
20986;SDS011;10652;50.306;8.570;2023-09-08T09:00:53;4.15;;;2.90;;
20986;SDS011;10652;50.306;8.570;2023-09-08T09:04:57;4.28;;;2.78;;
20986;SDS011;10652;50.306;8.570;2023-09-08T09:09:00;7.38;;;3.08;;
20986;SDS011;10652;50.306;8.570;2023-09-08T09:13:03;3.78;;;2.95;;
20986;SDS011;10652;50.306;8.570;2023-09-08T09:17:10;5.43;;;3.25;;
20986;SDS011;10652;50.306;8.570;2023-09-08T09:21:12;3.38;;;3.08;;
20986;SDS011;10652;50.306;8.570;2023-09-08T09:25:22;4.28;;;3.10;;
20986;SDS011;10652;50.306;8.570;2023-09-08T09:29:29;4.28;;;3.30;;
20986;SDS011;10652;50.306;8.570;2023-09-08T09:33:31;3.03;;;2.72;;
20986;SDS011;10652;50.306;8.570;2023-09-08T09:37:33;3.67;;;2.92;;
20986;SDS011;10652;50.306;8.570;2023-09-08T09:41:37;4.53;;;3.10;;
20986;SDS011;10652;50.306;8.570;2023-09-08T09:45:39;4.82;;;3.10;;
20986;SDS011;10652;50.306;8.570;2023-09-08T09:49:43;4.65;;;3.10;;
20986;SDS011;10652;50.306;8.570;2023-09-08T09:53:46;6.97;;;3.55;;
20986;SDS011;10652;50.306;8.570;2023-09-08T09:57:51;4.65;;;3.13;;
20986;SDS011;10652;50.306;8.570;2023-09-08T10:01:59;4.30;;;3.47;;
20986;SDS011;10652;50.306;8.570;2023-09-08T10:06:02;4.57;;;3.28;;
20986;SDS011;10652;50.306;8.570;2023-09-08T10:10:05;4.75;;;3.50;;
20986;SDS011;10652;50.306;8.570;2023-09-08T10:14:07;4.90;;;2.90;;
20986;SDS011;10652;50.306;8.570;2023-09-08T10:18:13;3.70;;;3.10;;
20986;SDS011;10652;50.306;8.570;2023-09-08T10:22:22;3.47;;;3.10;;
20986;SDS011;10652;50.306;8.570;2023-09-08T10:26:28;3.20;;;2.88;;
20986;SDS011;10652;50.306;8.570;2023-09-08T10:30:33;4.88;;;3.40;;
20986;SDS011;10652;50.306;8.570;2023-09-08T10:34:36;3.58;;;3.15;;
20986;SDS011;10652;50.306;8.570;2023-09-08T10:38:40;5.38;;;3.30;;
20986;SDS011;10652;50.306;8.570;2023-09-08T10:42:43;3.75;;;2.85;;
20986;SDS011;10652;50.306;8.570;2023-09-08T10:46:45;4.07;;;3.30;;
20986;SDS011;10652;50.306;8.570;2023-09-08T10:50:48;3.95;;;3.42;;
20986;SDS011;10652;50.306;8.570;2023-09-08T10:54:51;4.07;;;3.10;;
20986;SDS011;10652;50.306;8.570;2023-09-08T10:58:54;5.90;;;3.03;;
20986;SDS011;10652;50.306;8.570;2023-09-08T11:02:56;3.20;;;2.90;;
20986;SDS011;10652;50.306;8.570;2023-09-08T11:07:00;3.58;;;3.13;;
20986;SDS011;10652;50.306;8.570;2023-09-08T11:11:02;5.50;;;3.25;;
20986;SDS011;10652;50.306;8.570;2023-09-08T11:15:05;5.38;;;3.50;;
20986;SDS011;10652;50.306;8.570;2023-09-08T11:19:10;3.90;;;3.10;;
20986;SDS011;10652;50.306;8.570;2023-09-08T11:23:12;7.05;;;3.58;;
20986;SDS011;10652;50.306;8.570;2023-09-08T11:27:15;5.65;;;3.35;;
20986;SDS011;10652;50.306;8.570;2023-09-08T11:31:17;4.60;;;3.22;;
20986;SDS011;10652;50.306;8.570;2023-09-08T11:35:19;3.50;;;3.05;;
20986;SDS011;10652;50.306;8.570;2023-09-08T11:39:23;3.78;;;3.20;;
20986;SDS011;10652;50.306;8.570;2023-09-08T11:43:27;4.20;;;3.53;;
20986;SDS011;10652;50.306;8.570;2023-09-08T11:47:30;5.13;;;3.35;;
20986;SDS011;10652;50.306;8.570;2023-09-08T11:51:33;5.63;;;3.22;;
20986;SDS011;10652;50.306;8.570;2023-09-08T11:55:35;3.40;;;3.10;;
20986;SDS011;10652;50.306;8.570;2023-09-08T11:59:41;4.88;;;3.50;;
20986;SDS011;10652;50.306;8.570;2023-09-08T12:03:53;3.63;;;3.25;;
20986;SDS011;10652;50.306;8.570;2023-09-08T12:07:58;3.90;;;3.50;;
20986;SDS011;10652;50.306;8.570;2023-09-08T12:12:00;3.65;;;3.22;;
20986;SDS011;10652;50.306;8.570;2023-09-08T12:16:17;5.15;;;3.33;;
20986;SDS011;10652;50.306;8.570;2023-09-08T12:20:24;3.95;;;3.22;;
20986;SDS011;10652;50.306;8.570;2023-09-08T12:28:47;4.32;;;3.42;;
20986;SDS011;10652;50.306;8.570;2023-09-08T12:32:50;3.65;;;3.30;;
20986;SDS011;10652;50.306;8.570;2023-09-08T12:36:54;5.15;;;3.38;;
20986;SDS011;10652;50.306;8.570;2023-09-08T12:40:57;3.40;;;2.92;;
20986;SDS011;10652;50.306;8.570;2023-09-08T12:44:59;3.63;;;3.00;;
20986;SDS011;10652;50.306;8.570;2023-09-08T12:49:01;5.60;;;3.28;;
20986;SDS011;10652;50.306;8.570;2023-09-08T12:53:03;4.68;;;3.00;;
20986;SDS011;10652;50.306;8.570;2023-09-08T12:57:06;4.40;;;2.97;;
20986;SDS011;10652;50.306;8.570;2023-09-08T13:01:08;3.70;;;2.83;;
20986;SDS011;10652;50.306;8.570;2023-09-08T13:05:10;4.47;;;3.05;;
20986;SDS011;10652;50.306;8.570;2023-09-08T13:09:12;4.20;;;3.00;;
20986;SDS011;10652;50.306;8.570;2023-09-08T13:13:14;3.17;;;2.80;;
20986;SDS011;10652;50.306;8.570;2023-09-08T13:17:16;5.65;;;2.60;;
20986;SDS011;10652;50.306;8.570;2023-09-08T13:21:19;3.55;;;2.67;;
20986;SDS011;10652;50.306;8.570;2023-09-08T13:25:21;2.63;;;2.25;;
20986;SDS011;10652;50.306;8.570;2023-09-08T13:29:23;4.00;;;2.80;;
20986;SDS011;10652;50.306;8.570;2023-09-08T13:33:25;5.22;;;2.75;;
20986;SDS011;10652;50.306;8.570;2023-09-08T13:37:28;3.08;;;2.60;;
20986;SDS011;10652;50.306;8.570;2023-09-08T13:46:05;3.40;;;2.53;;
20986;SDS011;10652;50.306;8.570;2023-09-08T13:50:08;3.63;;;2.63;;
20986;SDS011;10652;50.306;8.570;2023-09-08T13:54:12;3.33;;;2.40;;
20986;SDS011;10652;50.306;8.570;2023-09-08T13:58:14;4.10;;;2.47;;
20986;SDS011;10652;50.306;8.570;2023-09-08T14:02:21;5.75;;;2.65;;
20986;SDS011;10652;50.306;8.570;2023-09-08T14:06:26;4.07;;;2.58;;
20986;SDS011;10652;50.306;8.570;2023-09-08T14:10:33;2.63;;;2.10;;
20986;SDS011;10652;50.306;8.570;2023-09-08T14:14:38;2.60;;;2.40;;
20986;SDS011;10652;50.306;8.570;2023-09-08T14:18:40;3.10;;;2.60;;
20986;SDS011;10652;50.306;8.570;2023-09-08T14:22:42;5.00;;;2.78;;
20986;SDS011;10652;50.306;8.570;2023-09-08T14:26:44;3.35;;;2.38;;
20986;SDS011;10652;50.306;8.570;2023-09-08T14:30:47;6.60;;;3.08;;
20986;SDS011;10652;50.306;8.570;2023-09-08T14:34:51;5.00;;;2.60;;
20986;SDS011;10652;50.306;8.570;2023-09-08T14:38:53;4.93;;;3.00;;
20986;SDS011;10652;50.306;8.570;2023-09-08T14:42:56;2.72;;;2.50;;
20986;SDS011;10652;50.306;8.570;2023-09-08T14:46:58;4.18;;;3.08;;
20986;SDS011;10652;50.306;8.570;2023-09-08T14:51:00;3.63;;;2.88;;
20986;SDS011;10652;50.306;8.570;2023-09-08T14:55:03;3.00;;;2.28;;
20986;SDS011;10652;50.306;8.570;2023-09-08T14:59:07;2.55;;;2.35;;
20986;SDS011;10652;50.306;8.570;2023-09-08T15:03:10;2.83;;;2.63;;
20986;SDS011;10652;50.306;8.570;2023-09-08T15:07:12;3.95;;;2.67;;
20986;SDS011;10652;50.306;8.570;2023-09-08T15:11:14;3.42;;;3.00;;
20986;SDS011;10652;50.306;8.570;2023-09-08T15:15:16;3.00;;;2.45;;
20986;SDS011;10652;50.306;8.570;2023-09-08T15:19:20;3.00;;;2.40;;
20986;SDS011;10652;50.306;8.570;2023-09-08T15:23:22;3.58;;;2.78;;
20986;SDS011;10652;50.306;8.570;2023-09-08T15:27:24;2.72;;;2.53;;
20986;SDS011;10652;50.306;8.570;2023-09-08T15:31:26;3.65;;;2.50;;
20986;SDS011;10652;50.306;8.570;2023-09-08T15:35:29;3.92;;;2.92;;
20986;SDS011;10652;50.306;8.570;2023-09-08T15:39:32;4.60;;;2.70;;
20986;SDS011;10652;50.306;8.570;2023-09-08T15:43:35;3.75;;;2.70;;
20986;SDS011;10652;50.306;8.570;2023-09-08T15:47:38;4.45;;;2.97;;
20986;SDS011;10652;50.306;8.570;2023-09-08T15:51:40;4.68;;;2.65;;
20986;SDS011;10652;50.306;8.570;2023-09-08T15:55:43;3.75;;;2.67;;
20986;SDS011;10652;50.306;8.570;2023-09-08T15:59:45;4.72;;;2.97;;
20986;SDS011;10652;50.306;8.570;2023-09-08T16:03:47;3.60;;;2.70;;
20986;SDS011;10652;50.306;8.570;2023-09-08T16:07:49;5.47;;;2.92;;
20986;SDS011;10652;50.306;8.570;2023-09-08T16:11:51;3.80;;;2.75;;
20986;SDS011;10652;50.306;8.570;2023-09-08T16:15:53;3.47;;;2.50;;
20986;SDS011;10652;50.306;8.570;2023-09-08T16:19:56;3.63;;;2.90;;
20986;SDS011;10652;50.306;8.570;2023-09-08T16:23:58;3.40;;;2.60;;
20986;SDS011;10652;50.306;8.570;2023-09-08T16:28:00;4.32;;;2.60;;
20986;SDS011;10652;50.306;8.570;2023-09-08T16:32:02;3.97;;;2.65;;
20986;SDS011;10652;50.306;8.570;2023-09-08T16:36:04;4.82;;;2.80;;
20986;SDS011;10652;50.306;8.570;2023-09-08T16:40:07;3.20;;;2.80;;
20986;SDS011;10652;50.306;8.570;2023-09-08T16:44:09;2.85;;;2.55;;
20986;SDS011;10652;50.306;8.570;2023-09-08T16:48:11;4.78;;;2.95;;
20986;SDS011;10652;50.306;8.570;2023-09-08T16:52:15;2.75;;;2.55;;
20986;SDS011;10652;50.306;8.570;2023-09-08T16:56:17;4.10;;;2.97;;
20986;SDS011;10652;50.306;8.570;2023-09-08T17:00:19;6.00;;;3.63;;
20986;SDS011;10652;50.306;8.570;2023-09-08T17:04:21;5.75;;;3.15;;
20986;SDS011;10652;50.306;8.570;2023-09-08T17:08:25;3.67;;;2.97;;
20986;SDS011;10652;50.306;8.570;2023-09-08T17:12:28;5.18;;;2.95;;
20986;SDS011;10652;50.306;8.570;2023-09-08T17:16:30;3.60;;;3.03;;
20986;SDS011;10652;50.306;8.570;2023-09-08T17:20:33;3.92;;;2.97;;
20986;SDS011;10652;50.306;8.570;2023-09-08T17:24:35;3.05;;;2.75;;
20986;SDS011;10652;50.306;8.570;2023-09-08T17:28:37;3.50;;;3.15;;
20986;SDS011;10652;50.306;8.570;2023-09-08T17:32:39;5.63;;;3.17;;
20986;SDS011;10652;50.306;8.570;2023-09-08T17:36:41;4.10;;;3.20;;
20986;SDS011;10652;50.306;8.570;2023-09-08T17:40:44;3.55;;;3.13;;
20986;SDS011;10652;50.306;8.570;2023-09-08T17:44:46;4.55;;;3.13;;
20986;SDS011;10652;50.306;8.570;2023-09-08T17:48:48;5.65;;;3.38;;
20986;SDS011;10652;50.306;8.570;2023-09-08T17:52:50;9.15;;;5.60;;
20986;SDS011;10652;50.306;8.570;2023-09-08T17:56:52;11.40;;;7.18;;
20986;SDS011;10652;50.306;8.570;2023-09-08T18:00:55;7.88;;;4.60;;
20986;SDS011;10652;50.306;8.570;2023-09-08T18:04:57;3.88;;;3.30;;
20986;SDS011;10652;50.306;8.570;2023-09-08T18:08:59;3.28;;;2.97;;
20986;SDS011;10652;50.306;8.570;2023-09-08T18:13:01;7.32;;;3.50;;
20986;SDS011;10652;50.306;8.570;2023-09-08T18:17:03;5.18;;;3.47;;
20986;SDS011;10652;50.306;8.570;2023-09-08T18:21:05;4.60;;;3.40;;
20986;SDS011;10652;50.306;8.570;2023-09-08T18:25:08;4.30;;;3.38;;
20986;SDS011;10652;50.306;8.570;2023-09-08T18:29:10;4.15;;;3.65;;
20986;SDS011;10652;50.306;8.570;2023-09-08T18:33:12;4.43;;;3.30;;
20986;SDS011;10652;50.306;8.570;2023-09-08T18:37:14;5.53;;;3.60;;
20986;SDS011;10652;50.306;8.570;2023-09-08T18:41:17;6.78;;;3.65;;
20986;SDS011;10652;50.306;8.570;2023-09-08T18:45:19;6.03;;;4.55;;
20986;SDS011;10652;50.306;8.570;2023-09-08T18:49:21;6.13;;;4.05;;
20986;SDS011;10652;50.306;8.570;2023-09-08T18:53:23;6.28;;;3.55;;
20986;SDS011;10652;50.306;8.570;2023-09-08T18:57:27;7.57;;;3.78;;
20986;SDS011;10652;50.306;8.570;2023-09-08T19:01:30;5.40;;;3.50;;
20986;SDS011;10652;50.306;8.570;2023-09-08T19:05:33;7.35;;;3.80;;
20986;SDS011;10652;50.306;8.570;2023-09-08T19:09:35;8.88;;;3.88;;
20986;SDS011;10652;50.306;8.570;2023-09-08T19:13:37;5.70;;;3.60;;
20986;SDS011;10652;50.306;8.570;2023-09-08T19:17:39;3.90;;;3.50;;
20986;SDS011;10652;50.306;8.570;2023-09-08T19:21:42;4.80;;;3.70;;
20986;SDS011;10652;50.306;8.570;2023-09-08T19:25:44;6.22;;;5.10;;
20986;SDS011;10652;50.306;8.570;2023-09-08T19:29:47;4.95;;;3.95;;
20986;SDS011;10652;50.306;8.570;2023-09-08T19:33:50;7.07;;;5.28;;
20986;SDS011;10652;50.306;8.570;2023-09-08T19:37:53;10.18;;;6.38;;
20986;SDS011;10652;50.306;8.570;2023-09-08T19:41:55;6.38;;;4.88;;
20986;SDS011;10652;50.306;8.570;2023-09-08T19:46:03;6.22;;;4.35;;
20986;SDS011;10652;50.306;8.570;2023-09-08T19:50:06;6.65;;;4.43;;
20986;SDS011;10652;50.306;8.570;2023-09-08T19:54:09;5.28;;;4.15;;
20986;SDS011;10652;50.306;8.570;2023-09-08T19:58:11;5.40;;;3.97;;
20986;SDS011;10652;50.306;8.570;2023-09-08T20:02:13;5.20;;;3.78;;
20986;SDS011;10652;50.306;8.570;2023-09-08T20:06:15;5.10;;;4.20;;
20986;SDS011;10652;50.306;8.570;2023-09-08T20:10:17;6.03;;;4.38;;
20986;SDS011;10652;50.306;8.570;2023-09-08T20:14:21;6.32;;;4.32;;
20986;SDS011;10652;50.306;8.570;2023-09-08T20:18:23;6.05;;;4.28;;
20986;SDS011;10652;50.306;8.570;2023-09-08T20:22:25;6.60;;;4.25;;
20986;SDS011;10652;50.306;8.570;2023-09-08T20:26:27;8.07;;;4.03;;
20986;SDS011;10652;50.306;8.570;2023-09-08T20:30:29;7.97;;;4.07;;
20986;SDS011;10652;50.306;8.570;2023-09-08T20:34:31;6.38;;;3.97;;
20986;SDS011;10652;50.306;8.570;2023-09-08T20:38:33;4.95;;;4.45;;
20986;SDS011;10652;50.306;8.570;2023-09-08T20:42:36;7.07;;;4.70;;
20986;SDS011;10652;50.306;8.570;2023-09-08T20:46:38;6.93;;;3.92;;
20986;SDS011;10652;50.306;8.570;2023-09-08T20:50:40;7.80;;;4.22;;
20986;SDS011;10652;50.306;8.570;2023-09-08T20:54:43;6.10;;;4.30;;
20986;SDS011;10652;50.306;8.570;2023-09-08T20:58:46;5.07;;;3.80;;
20986;SDS011;10652;50.306;8.570;2023-09-08T21:02:48;5.05;;;4.43;;
20986;SDS011;10652;50.306;8.570;2023-09-08T21:06:50;5.07;;;4.28;;
20986;SDS011;10652;50.306;8.570;2023-09-08T21:10:56;6.22;;;4.38;;
20986;SDS011;10652;50.306;8.570;2023-09-08T21:14:59;4.35;;;3.95;;
20986;SDS011;10652;50.306;8.570;2023-09-08T21:19:01;5.57;;;4.20;;
20986;SDS011;10652;50.306;8.570;2023-09-08T21:23:03;7.03;;;4.00;;
20986;SDS011;10652;50.306;8.570;2023-09-08T21:27:05;5.05;;;4.55;;
20986;SDS011;10652;50.306;8.570;2023-09-08T21:31:08;5.80;;;4.30;;
20986;SDS011;10652;50.306;8.570;2023-09-08T21:35:11;6.13;;;4.10;;
20986;SDS011;10652;50.306;8.570;2023-09-08T21:39:13;5.07;;;4.20;;
20986;SDS011;10652;50.306;8.570;2023-09-08T21:43:18;9.52;;;4.85;;
20986;SDS011;10652;50.306;8.570;2023-09-08T21:47:20;8.55;;;4.57;;
20986;SDS011;10652;50.306;8.570;2023-09-08T21:51:22;8.93;;;4.95;;
20986;SDS011;10652;50.306;8.570;2023-09-08T21:55:24;8.50;;;5.25;;
20986;SDS011;10652;50.306;8.570;2023-09-08T21:59:26;6.35;;;4.78;;
20986;SDS011;10652;50.306;8.570;2023-09-08T22:03:32;5.88;;;5.00;;
20986;SDS011;10652;50.306;8.570;2023-09-08T22:07:34;6.70;;;5.43;;
20986;SDS011;10652;50.306;8.570;2023-09-08T22:11:36;6.60;;;5.03;;
20986;SDS011;10652;50.306;8.570;2023-09-08T22:15:39;6.40;;;5.50;;
20986;SDS011;10652;50.306;8.570;2023-09-08T22:19:41;6.43;;;5.25;;
20986;SDS011;10652;50.306;8.570;2023-09-08T22:23:43;6.72;;;4.72;;
20986;SDS011;10652;50.306;8.570;2023-09-08T22:27:46;6.45;;;4.82;;
20986;SDS011;10652;50.306;8.570;2023-09-08T22:31:50;7.40;;;5.10;;
20986;SDS011;10652;50.306;8.570;2023-09-08T22:35:52;5.78;;;5.13;;
20986;SDS011;10652;50.306;8.570;2023-09-08T22:39:54;7.05;;;5.40;;
20986;SDS011;10652;50.306;8.570;2023-09-08T22:43:56;6.65;;;4.80;;
20986;SDS011;10652;50.306;8.570;2023-09-08T22:47:58;6.47;;;4.97;;
20986;SDS011;10652;50.306;8.570;2023-09-08T22:52:00;6.15;;;4.97;;
20986;SDS011;10652;50.306;8.570;2023-09-08T22:56:05;6.10;;;5.45;;
20986;SDS011;10652;50.306;8.570;2023-09-08T23:00:07;6.45;;;4.90;;
20986;SDS011;10652;50.306;8.570;2023-09-08T23:04:12;7.45;;;5.38;;
20986;SDS011;10652;50.306;8.570;2023-09-08T23:08:14;6.32;;;5.38;;
20986;SDS011;10652;50.306;8.570;2023-09-08T23:12:16;6.18;;;5.28;;
20986;SDS011;10652;50.306;8.570;2023-09-08T23:16:18;7.32;;;5.10;;
20986;SDS011;10652;50.306;8.570;2023-09-08T23:20:20;8.68;;;5.40;;
20986;SDS011;10652;50.306;8.570;2023-09-08T23:24:23;7.13;;;5.35;;
20986;SDS011;10652;50.306;8.570;2023-09-08T23:28:25;6.22;;;5.00;;
20986;SDS011;10652;50.306;8.570;2023-09-08T23:32:27;7.07;;;4.90;;
20986;SDS011;10652;50.306;8.570;2023-09-08T23:36:30;6.22;;;5.20;;
20986;SDS011;10652;50.306;8.570;2023-09-08T23:40:35;5.15;;;4.65;;
20986;SDS011;10652;50.306;8.570;2023-09-08T23:44:38;7.47;;;5.35;;
20986;SDS011;10652;50.306;8.570;2023-09-08T23:48:40;5.45;;;4.95;;
20986;SDS011;10652;50.306;8.570;2023-09-08T23:52:42;6.05;;;5.13;;
20986;SDS011;10652;50.306;8.570;2023-09-08T23:56:44;8.05;;;5.32;;
